This is the latest recevied weather packets stored in our database for station/object AF9W-5. If no packets are shown the sender has not sent any weather packets the latest 10 day(s).
| Time | Temp. | Humidity | Pressure | Rain* | Wind** | Luminosity | Snow |
|---|---|---|---|---|---|---|---|
| 1776953697 | 17.78° C | 31% | 1014.2 hPa | 0 mm | - | 156 W/m² | - |
| 1776953395 | 17.22° C | 32% | 1014 hPa | 0 mm | - | 142 W/m² | - |
| 1776953090 | 17.78° C | 34% | 1014.3 hPa | 0 mm | - | 122 W/m² | - |
| 1776952786 | 18.33° C | 32% | 1014.1 hPa | 0 mm | - | 106 W/m² | - |
| 1776952483 | 17.78° C | 33% | 1014.1 hPa | 0 mm | - | 94 W/m² | - |
| 1776952179 | 16.11° C | 35% | 1014 hPa | 0 mm | - | 84 W/m² | - |
| 1776951877 | 15° C | 38% | 1014.1 hPa | 0 mm | - | 68 W/m² | - |
| 1776951573 | 14.44° C | 38% | 1013.9 hPa | 0 mm | - | 60 W/m² | - |
| 1776951270 | 13.89° C | 40% | 1013.5 hPa | 0 mm | - | 48 W/m² | - |
| 1776950966 | 13.89° C | 40% | 1013.9 hPa | 0 mm | - | 40 W/m² | - |
| 1776950662 | 13.89° C | 39% | 1014 hPa | 0 mm | - | 30 W/m² | - |
| 1776950358 | 12.78° C | 42% | 1013.6 hPa | 0 mm | - | 29 W/m² | - |
| 1776950053 | 11.67° C | 44% | 1013.9 hPa | 0 mm | - | 25 W/m² | - |
| 1776949748 | 11.11° C | 44% | 1013.3 hPa | 0 mm | - | 19 W/m² | - |
| 1776949446 | 11.67° C | 44% | 1013.5 hPa | 0 mm | - | 16 W/m² | - |
| 1776949141 | 11.67° C | 43% | 1013.6 hPa | 0 mm | - | 13 W/m² | - |
| 1776948837 | 11.67° C | 43% | 1013.4 hPa | 0 mm | - | 9 W/m² | - |
| 1776948533 | 11.67° C | 43% | 1013.3 hPa | 0 mm | - | 6 W/m² | - |
| 1776948231 | 11.67° C | 43% | 1013.4 hPa | 0 mm | - | 3 W/m² | - |
| 1776947929 | 11.11° C | 45% | 1013.3 hPa | 0 mm | - | 2 W/m² | - |
| 1776947624 | 11.11° C | 44% | 1013.4 hPa | 0 mm | - | 1 W/m² | - |
| 1776947321 | 11.11° C | 43% | 1013.3 hPa | 0 mm | - | 0 W/m² | - |
| 1776947018 | 11.11° C | 44% | 1013.1 hPa | 0 mm | - | 0 W/m² | - |
| 1776946715 | 11.11° C | 44% | 1013.2 hPa | 0 mm | - | 0 W/m² | - |
| 1776946412 | 11.11° C | 44% | 1013.1 hPa | 0 mm | - | 0 W/m² | - |
* Rain latest hour (hover to see other rain measurements)
** Current wind speed in m/s (hover to see current wind gust speed)